Disclaimer

Please do not use the information listed here in-flight or in-navigation, as they are not provided to us by the airports but are provided by volunteers, so they might be outdated.

Search


Regions


Airport information page

Radio informations:
Tower (TWR) - 118.2 MHz
RDR - 119.1 MHz
Approach (APP) - 119.1 MHz

Airport informations:
Latitude: 17° 02' 19.39" N
Longitude: 054° 05' 28.67" E
Elevation: 73 feet - 22 meters
Operating hours: 24 hour operations
Operating agency: Military-civil joint use airport
Timezone: UTC+4
Fuel: 100/130 MIL Spec, low lead, aviation gasoline (BLUE)

Runway information:
07/25 - 10965 x 148 feet< - >3342 x 45 meters
17/35 - 4196 x 59 feet< - >1279 x 18 meters

Recent METARs:
OOSA 182350Z 33005KT CAVOK 24/19 Q1013 NOSIG
OOSA 190050Z VRB01KT CAVOK 24/20 Q1013 NOSIG
OOSA 190050Z VRB01KT CAVOK 24/20 Q1013 NOSIG

Airport on the map: